Time;durP1;ratioP1;P1;durP2;ratioP2;P2;SDS_P1;SDS_P2;PMS_P1;PMS_P2;Temp;Humidity;BMP_temperature;BMP_pressure;BME280_temperature;BME280_humidity;BME280_pressure;Samples;Min_cycle;Max_cycle;Signal;HPM_P1;HPM_P2
2021/12/15 00:00:32;;;;;;;39.42;16.52;;;;;;;9.97;74.68;102354.78;5047864;28;20127;-70
2021/12/15 00:02:59;;;;;;;45.25;17.48;;;;;;;9.75;75.28;102352.66;5049102;28;20531;-70
2021/12/15 00:05:27;;;;;;;44.58;17.02;;;;;;;9.85;75.22;102347.22;5048239;28;20072;-70
2021/12/15 00:07:58;;;;;;;40.75;18.45;;;;;;;9.71;75.20;102343.16;5048279;28;20100;-70
2021/12/15 00:10:26;;;;;;;41.17;16.77;;;;;;;9.33;76.66;102343.13;5048529;28;20045;-70
2021/12/15 00:12:54;;;;;;;40.28;17.88;;;;;;;9.29;76.58;102342.31;5048004;28;20094;-70
2021/12/15 00:15:22;;;;;;;40.25;17.58;;;;;;;9.44;76.14;102343.75;5048059;28;20122;-70
2021/12/15 00:17:49;;;;;;;46.40;17.42;;;;;;;9.40;76.67;102342.09;5046968;28;20098;-70
2021/12/15 00:20:17;;;;;;;49.65;18.38;;;;;;;9.45;76.25;102342.88;5047115;28;20045;-70
2021/12/15 00:22:44;;;;;;;45.30;18.05;;;;;;;9.37;76.25;102349.16;5048450;28;20044;-70
2021/12/15 00:25:13;;;;;;;47.67;19.05;;;;;;;9.51;76.02;102353.19;5048203;28;20094;-70
2021/12/15 00:27:40;;;;;;;43.65;17.83;;;;;;;8.87;77.86;102352.81;5048353;28;20509;-70
2021/12/15 00:30:10;;;;;;;40.53;17.25;;;;;;;9.08;77.35;102355.84;5051722;28;20076;-70
2021/12/15 00:32:36;;;;;;;39.25;17.20;;;;;;;8.64;78.92;102361.94;5052369;28;20771;-70
2021/12/15 00:35:04;;;;;;;38.22;16.55;;;;;;;8.95;78.01;102356.09;5052186;28;20489;-70
2021/12/15 00:37:31;;;;;;;38.25;17.00;;;;;;;8.84;78.33;102353.69;5051911;28;20045;-70
2021/12/15 00:39:57;;;;;;;36.80;16.27;;;;;;;9.06;77.39;102357.63;5051860;28;20073;-70
2021/12/15 00:42:25;;;;;;;42.05;18.02;;;;;;;8.96;77.89;102356.09;5051618;28;20049;-70
2021/12/15 00:44:51;;;;;;;43.63;18.23;;;;;;;8.53;79.53;102349.94;5050198;28;20459;-70
2021/12/15 00:47:18;;;;;;;38.25;16.60;;;;;;;8.49;79.37;102349.13;5051866;28;20111;-70
2021/12/15 00:49:45;;;;;;;39.13;17.65;;;;;;;8.64;79.50;102356.69;5051383;28;20049;-70
2021/12/15 00:52:11;;;;;;;35.83;16.65;;;;;;;8.66;79.27;102354.91;5052274;28;20417;-70
2021/12/15 00:54:38;;;;;;;36.88;16.15;;;;;;;8.92;78.37;102350.94;5051631;28;20080;-70
2021/12/15 00:57:05;;;;;;;35.22;16.88;;;;;;;8.95;78.05;102351.75;5034730;28;20073;-70
2021/12/15 00:59:33;;;;;;;36.53;16.45;;;;;;;8.74;78.42;102345.16;5031732;28;20096;-70
2021/12/15 01:02:00;;;;;;;37.92;16.98;;;;;;;8.51;79.90;102342.09;5030968;28;20045;-70
2021/12/15 01:04:29;;;;;;;38.40;17.92;;;;;;;8.74;78.98;102342.56;5031990;28;20445;-70
2021/12/15 01:06:59;;;;;;;37.67;16.60;;;;;;;8.90;78.35;102345.75;5031322;28;20053;-70
2021/12/15 01:09:31;;;;;;;33.92;15.40;;;;;;;8.86;78.29;102351.06;5051450;28;20045;-70
2021/12/15 01:12:15;;;;;;;36.40;14.95;;;;;;;8.94;78.35;102351.78;5051383;28;20130;-70
2021/12/15 01:20:19;;;;;;;27.73;12.85;;;;;;;9.21;77.25;102354.69;5050839;28;20060;-70
2021/12/15 01:22:48;;;;;;;32.55;14.88;;;;;;;9.46;76.43;102364.69;5031467;28;20119;-70
2021/12/15 01:25:20;;;;;;;31.52;13.90;;;;;;;9.62;75.63;102369.53;5031545;28;20050;-70
2021/12/15 01:27:48;;;;;;;26.92;13.52;;;;;;;9.59;75.46;102369.63;5050652;28;20091;-70
2021/12/15 01:30:19;;;;;;;26.10;12.65;;;;;;;9.66;75.53;102372.94;5051751;28;20040;-70
2021/12/15 01:32:45;;;;;;;;;;;;;;;9.86;74.71;102368.16;5051831;28;20040;-70
2021/12/15 01:35:12;;;;;;;25.63;12.40;;;;;;;9.95;74.30;102374.91;5051545;28;19955;-70
2021/12/15 01:37:39;;;;;;;29.48;13.25;;;;;;;9.95;74.22;102364.44;5050431;28;20045;-70
2021/12/15 01:40:12;;;;;;;25.05;12.75;;;;;;;9.90;74.25;102372.41;5050509;28;20048;-70
2021/12/15 01:42:38;;;;;;;29.35;11.88;;;;;;;9.93;74.07;102361.88;5046901;28;20495;-70
2021/12/15 01:48:01;;;;;;;28.63;12.68;;;;;;;9.53;75.38;102375.00;5044816;28;20091;-70
2021/12/15 01:50:28;;;;;;;23.73;11.30;;;;;;;9.27;76.33;102375.50;5050657;28;20041;-70
2021/12/15 01:52:54;;;;;;;25.15;12.18;;;;;;;9.21;76.73;102366.91;5050487;28;20107;-70
2021/12/15 01:55:22;;;;;;;27.10;12.30;;;;;;;9.43;76.22;102373.44;5051002;28;20446;-70
2021/12/15 01:57:49;;;;;;;27.63;13.68;;;;;;;9.44;76.02;102372.56;5061953;28;20049;-70
2021/12/15 02:00:21;;;;;;;27.10;12.70;;;;;;;9.12;77.40;102369.75;5070714;28;20044;-70
2021/12/15 02:02:50;;;;;;;30.02;12.98;;;;;;;9.16;77.07;102369.63;5052797;28;20129;-70
2021/12/15 02:05:18;;;;;;;31.65;13.32;;;;;;;9.42;76.14;102374.34;5048790;28;20045;-70
2021/12/15 02:07:47;;;;;;;24.35;12.05;;;;;;;9.21;76.71;102361.69;5050866;28;20122;-70
2021/12/15 02:10:14;;;;;;;22.95;12.18;;;;;;;9.38;76.69;102366.59;5050400;28;20067;-70
2021/12/15 02:12:42;;;;;;;23.95;12.68;;;;;;;9.19;77.18;102366.09;5041897;28;20041;-70
2021/12/15 02:15:13;;;;;;;25.25;12.68;;;;;;;9.00;77.58;102367.34;5044349;28;20045;-70
2021/12/15 02:17:40;;;;;;;21.25;11.35;;;;;;;8.99;78.12;102369.09;5046319;28;20118;-70
2021/12/15 02:20:10;;;;;;;27.08;13.05;;;;;;;9.04;77.80;102372.50;5050288;28;20464;-70
2021/12/15 02:22:37;;;;;;;22.75;11.95;;;;;;;9.10;77.38;102363.66;5050131;28;20068;-70
2021/12/15 02:25:07;;;;;;;26.13;12.18;;;;;;;9.11;77.43;102381.09;5050374;28;20464;-70
2021/12/15 02:27:35;;;;;;;24.33;12.00;;;;;;;8.96;78.20;102378.75;5050025;28;20059;-70
2021/12/15 02:30:18;;;;;;;19.63;10.63;;;;;;;9.03;78.35;102369.91;5050060;28;20098;-70
2021/12/15 02:32:56;;;;;;;25.23;11.38;;;;;;;9.36;76.99;102374.47;5049897;28;20037;-70
2021/12/15 02:38:08;;;;;;;24.95;12.45;;;;;;;9.49;76.04;102380.31;5049819;28;20090;-70
2021/12/15 02:40:34;;;;;;;21.33;10.90;;;;;;;9.36;76.66;102378.84;5049330;28;20134;-70
2021/12/15 02:43:01;;;;;;;18.80;10.77;;;;;;;9.35;76.52;102379.75;5049492;28;20041;-70
2021/12/15 02:45:27;;;;;;;19.40;10.20;;;;;;;9.25;77.18;102385.16;5048012;28;20094;-70
2021/12/15 02:47:54;;;;;;;16.55;9.32;;;;;;;9.34;76.30;102383.25;5048916;28;20049;-70
2021/12/15 02:50:25;;;;;;;16.85;9.18;;;;;;;9.44;76.42;102382.16;5042586;28;20494;-70
2021/12/15 02:52:52;;;;;;;20.23;8.90;;;;;;;9.40;76.02;102396.22;5048001;28;20064;-70
2021/12/15 02:55:20;;;;;;;20.10;9.85;;;;;;;9.37;76.49;102384.06;5049507;28;20041;-70
2021/12/15 02:57:48;;;;;;;16.15;8.23;;;;;;;9.25;76.69;102387.78;5049293;28;20076;-70
2021/12/15 03:00:19;;;;;;;16.40;8.75;;;;;;;9.11;77.42;102378.47;5048404;28;20424;-70
2021/12/15 03:03:12;;;;;;;17.27;8.65;;;;;;;8.90;78.63;102386.75;5041853;28;20044;-70
2021/12/15 03:05:44;;;;;;;15.38;7.15;;;;;;;8.83;78.53;102377.28;5048941;28;20064;-70
2021/12/15 03:08:14;;;;;;;11.50;6.72;;;;;;;8.77;78.93;102384.34;5049625;28;20464;-70
2021/12/15 03:16:14;;;;;;;9.05;5.97;;;;;;;8.82;79.08;102375.56;5047296;28;20579;-69
2021/12/15 03:18:40;;;;;;;11.00;6.57;;;;;;;8.93;78.33;102378.84;5040704;28;20064;-69
2021/12/15 03:21:10;;;;;;;11.15;5.97;;;;;;;8.93;78.55;102376.22;5048877;28;20057;-69
2021/12/15 03:23:44;;;;;;;10.50;5.80;;;;;;;9.12;77.47;102380.22;5048676;28;20389;-69
2021/12/15 03:26:16;;;;;;;8.00;5.13;;;;;;;9.18;77.10;102377.47;5048953;28;20485;-70
2021/12/15 03:34:26;;;;;;;8.27;5.32;;;;;;;9.48;76.80;102389.06;5049323;28;20520;-70
2021/12/15 03:37:09;;;;;;;10.27;6.07;;;;;;;9.44;76.71;102385.66;5048569;28;20136;-70
2021/12/15 03:39:42;;;;;;;11.52;5.63;;;;;;;9.40;76.72;102386.59;5042313;28;20501;-70
2021/12/15 03:42:11;;;;;;;6.25;4.75;;;;;;;9.48;76.66;102384.69;5048553;28;20040;-70
2021/12/15 03:44:40;;;;;;;9.52;5.38;;;;;;;9.70;75.55;102396.44;5048710;28;20124;-70
2021/12/15 03:47:10;;;;;;;8.40;4.88;;;;;;;9.71;75.80;102382.44;5047200;28;20110;-70
2021/12/15 03:49:36;;;;;;;11.68;4.88;;;;;;;9.89;75.04;102383.78;5048235;28;20053;-70
2021/12/15 03:52:04;;;;;;;6.72;4.53;;;;;;;9.98;74.71;102380.06;5048355;28;20069;-70
2021/12/15 03:54:31;;;;;;;6.50;4.43;;;;;;;10.02;74.04;102390.47;5048851;28;20044;-70
2021/12/15 03:56:57;;;;;;;7.38;4.60;;;;;;;10.16;73.93;102385.78;5048357;28;20061;-70
2021/12/15 03:59:27;;;;;;;5.75;4.35;;;;;;;9.92;74.59;102393.31;5048620;28;20467;-70
2021/12/15 04:01:54;;;;;;;6.47;4.63;;;;;;;9.78;74.75;102389.28;5048409;28;20118;-70
2021/12/15 04:04:20;;;;;;;5.75;4.35;;;;;;;9.55;76.00;102391.53;5048257;28;20115;-70
2021/12/15 04:06:47;;;;;;;10.82;4.68;;;;;;;9.57;76.29;102397.56;5048316;28;20562;-70
2021/12/15 04:09:15;;;;;;;7.95;4.32;;;;;;;9.72;76.16;102388.53;5048744;28;20069;-70
2021/12/15 04:11:42;;;;;;;5.60;4.25;;;;;;;9.48;76.58;102384.69;5040660;28;20118;-70
2021/12/15 04:14:18;;;;;;;6.88;4.35;;;;;;;9.24;76.84;102385.19;5048009;28;20071;-70
2021/12/15 04:16:59;;;;;;;8.13;4.32;;;;;;;9.38;76.82;102387.53;5043322;28;20536;-70
2021/12/15 04:19:26;;;;;;;6.10;4.95;;;;;;;9.21;77.78;102387.88;5046223;28;20041;-70
2021/12/15 04:21:53;;;;;;;7.38;4.40;;;;;;;9.05;78.56;102386.44;5034259;28;20497;-70
2021/12/15 04:24:20;;;;;;;4.88;3.70;;;;;;;8.74;79.01;102394.00;5036960;28;20045;-70
2021/12/15 04:26:49;;;;;;;4.68;3.38;;;;;;;8.64;80.06;102397.66;5047601;28;20049;-70
2021/12/15 04:29:15;;;;;;;8.05;3.83;;;;;;;8.40;81.08;102398.06;5048395;28;20463;-70
2021/12/15 04:31:45;;;;;;;6.80;4.30;;;;;;;8.44;81.00;102389.28;5048633;28;20037;-70
2021/12/15 04:34:13;;;;;;;5.88;3.80;;;;;;;8.18;82.06;102395.78;5048017;28;20559;-70
2021/12/15 04:36:43;;;;;;;5.10;3.83;;;;;;;8.52;81.14;102388.28;5047951;28;20041;-70
2021/12/15 04:39:13;;;;;;;4.97;3.78;;;;;;;8.75;80.12;102393.13;5048458;28;20041;-70
2021/12/15 04:41:44;;;;;;;5.43;3.65;;;;;;;8.88;79.59;102397.22;5039685;28;20077;-70
2021/12/15 04:44:12;;;;;;;6.25;4.13;;;;;;;8.96;79.11;102394.47;5046274;28;20048;-70
2021/12/15 04:46:41;;;;;;;8.43;4.80;;;;;;;9.23;78.01;102405.28;5047514;28;20052;-70
2021/12/15 04:49:09;;;;;;;6.88;4.47;;;;;;;9.23;78.10;102400.03;5048007;28;20049;-70
2021/12/15 04:51:37;;;;;;;9.35;4.07;;;;;;;9.25;78.04;102400.00;5047601;28;20072;-70
2021/12/15 04:54:04;;;;;;;5.72;4.38;;;;;;;9.45;76.94;102402.22;5048019;28;20037;-70
2021/12/15 04:56:30;;;;;;;6.47;4.28;;;;;;;9.35;77.66;102404.16;5047722;28;20041;-70
2021/12/15 04:58:58;;;;;;;8.50;4.47;;;;;;;9.35;77.89;102403.31;5047093;28;20045;-70
2021/12/15 05:01:25;;;;;;;7.50;4.80;;;;;;;9.29;77.87;102402.53;5047669;28;20134;-70
2021/12/15 05:03:52;;;;;;;10.18;4.85;;;;;;;9.05;78.45;102396.91;5046531;28;20041;-71
2021/12/15 05:06:18;;;;;;;7.43;5.05;;;;;;;8.89;79.50;102398.97;5047463;28;20045;-70
2021/12/15 05:08:46;;;;;;;6.70;4.60;;;;;;;8.85;79.47;102406.88;5047865;28;20053;-70
2021/12/15 05:11:13;;;;;;;7.68;4.50;;;;;;;8.95;79.59;102404.06;5048264;28;20041;-70
2021/12/15 05:13:40;;;;;;;7.57;5.10;;;;;;;9.20;78.56;102404.47;5047037;28;20048;-70
2021/12/15 05:16:07;;;;;;;7.55;5.00;;;;;;;9.06;78.84;102401.25;5047975;28;20072;-70
2021/12/15 05:18:34;;;;;;;8.35;5.00;;;;;;;9.10;78.89;102397.69;5051033;28;20041;-70
2021/12/15 05:21:00;;;;;;;9.93;5.78;;;;;;;8.99;79.23;102402.25;5051207;28;20508;-70
2021/12/15 05:23:30;;;;;;;9.95;5.95;;;;;;;8.82;80.00;102399.97;5051808;28;20114;-70
2021/12/15 05:25:59;;;;;;;8.00;5.82;;;;;;;8.97;79.51;102402.28;5051508;28;20415;-70
2021/12/15 05:28:26;;;;;;;10.15;6.20;;;;;;;8.75;80.80;102411.41;5050697;28;20045;-70
2021/12/15 05:30:53;;;;;;;11.80;6.40;;;;;;;9.02;79.88;102405.66;5051353;28;20493;-70
2021/12/15 05:33:20;;;;;;;10.65;6.43;;;;;;;9.08;79.89;102412.56;5051254;28;20505;-70
2021/12/15 05:35:46;;;;;;;10.82;6.50;;;;;;;9.14;79.68;102420.28;5051649;28;20068;-70
2021/12/15 05:38:13;;;;;;;14.13;7.05;;;;;;;8.93;79.96;102420.69;5050844;28;20044;-70
2021/12/15 05:40:39;;;;;;;12.90;8.00;;;;;;;8.51;82.36;102419.66;5050944;28;20214;-70
2021/12/15 05:43:07;;;;;;;16.42;7.68;;;;;;;8.82;81.23;102420.88;5050865;28;20416;-70
2021/12/15 05:45:36;;;;;;;14.80;7.80;;;;;;;8.73;81.33;102426.25;5050064;28;20134;-70
2021/12/15 05:48:08;;;;;;;14.35;8.05;;;;;;;8.94;80.67;102422.41;5050142;28;20595;-70
2021/12/15 05:50:36;;;;;;;10.60;7.35;;;;;;;9.25;79.60;102426.16;5050480;28;20134;-70
2021/12/15 05:53:04;;;;;;;13.30;7.72;;;;;;;9.52;77.82;102423.00;5051021;28;20045;-70
2021/12/15 05:55:30;;;;;;;14.00;8.13;;;;;;;9.64;77.69;102425.38;5051055;28;20045;-70
2021/12/15 05:57:57;;;;;;;11.52;7.85;;;;;;;9.05;80.12;102426.56;5049960;28;20455;-70
2021/12/15 06:00:28;;;;;;;16.92;10.25;;;;;;;8.83;80.80;102425.22;5050775;28;20044;-70
2021/12/15 06:02:55;;;;;;;15.27;8.88;;;;;;;8.97;81.03;102418.00;5050286;28;20071;-70
2021/12/15 06:05:21;;;;;;;15.27;9.05;;;;;;;8.83;81.40;102417.38;5050886;28;20069;-70
2021/12/15 06:07:49;;;;;;;22.23;9.02;;;;;;;8.76;81.84;102420.97;5050041;28;20064;-70
2021/12/15 06:10:19;;;;;;;17.52;8.88;;;;;;;8.45;83.59;102417.16;5050914;28;20044;-70
2021/12/15 06:12:47;;;;;;;11.83;6.10;;;;;;;8.62;82.85;102421.22;5050684;28;20133;-70
2021/12/15 06:15:20;;;;;;;14.55;8.90;;;;;;;8.11;84.44;102420.25;5048533;28;20119;-70
2021/12/15 06:17:48;;;;;;;16.27;8.80;;;;;;;8.29;84.82;102422.63;5050100;28;20512;-70
2021/12/15 06:20:14;;;;;;;17.60;8.80;;;;;;;8.47;83.58;102424.09;5050170;28;20045;-70
2021/12/15 06:22:44;;;;;;;16.55;8.45;;;;;;;8.57;83.14;102425.66;5049924;28;20114;-69
2021/12/15 06:25:10;;;;;;;13.30;8.13;;;;;;;8.63;82.89;102416.84;5050235;28;20043;-70
2021/12/15 06:27:37;;;;;;;16.45;8.73;;;;;;;8.94;81.91;102432.88;5049428;28;20519;-70
2021/12/15 06:30:05;;;;;;;16.85;8.27;;;;;;;8.94;81.39;102423.28;5050154;28;20048;-70
2021/12/15 06:32:32;;;;;;;17.38;9.75;;;;;;;8.99;81.00;102431.91;5050224;28;20076;-70
2021/12/15 06:35:00;;;;;;;17.80;9.13;;;;;;;9.05;81.34;102429.19;5050086;28;20056;-70
2021/12/15 06:37:26;;;;;;;17.77;10.18;;;;;;;9.06;81.10;102440.50;5049405;28;20045;-70
2021/12/15 06:39:53;;;;;;;17.00;8.98;;;;;;;8.92;81.79;102440.75;5050009;28;20060;-69
2021/12/15 06:42:19;;;;;;;17.83;9.85;;;;;;;8.90;81.54;102444.28;5048651;28;20089;-69
2021/12/15 06:44:47;;;;;;;17.10;9.95;;;;;;;8.94;81.50;102443.34;5049306;28;20073;-69
2021/12/15 06:58:23;;;;;;;19.35;9.38;;;;;;;9.52;78.85;102449.19;5046169;28;20048;-70
2021/12/15 07:00:54;;;;;;;16.98;9.43;;;;;;;9.48;79.35;102444.91;5047992;28;20049;-70
2021/12/15 07:03:21;;;;;;;18.10;9.10;;;;;;;9.68;78.29;102439.28;5048890;28;20537;-70
2021/12/15 07:05:50;;;;;;;16.73;9.18;;;;;;;9.68;78.48;102439.28;5049444;28;20183;-69
2021/12/15 07:08:17;;;;;;;18.15;9.85;;;;;;;9.34;79.42;102441.72;5049049;28;20065;-70
2021/12/15 07:10:45;;;;;;;18.05;10.02;;;;;;;9.52;78.97;102443.09;5048982;28;20099;-70
2021/12/15 07:13:13;;;;;;;18.80;9.82;;;;;;;9.33;79.42;102439.97;5049175;28;20069;-70
2021/12/15 07:15:41;;;;;;;18.02;9.43;;;;;;;9.43;79.63;102446.75;5040872;28;20722;-70
2021/12/15 07:18:10;;;;;;;16.33;8.68;;;;;;;9.38;79.86;102450.38;5045739;28;20555;-70
2021/12/15 07:20:42;;;;;;;17.70;9.85;;;;;;;9.41;79.58;102445.94;5048996;28;20051;-70
2021/12/15 07:23:12;;;;;;;19.35;10.27;;;;;;;9.55;79.55;102451.75;5049212;28;20060;-70
2021/12/15 07:25:41;;;;;;;15.32;8.73;;;;;;;9.64;79.22;102453.31;5049269;28;20111;-70
2021/12/15 07:28:07;;;;;;;20.00;10.00;;;;;;;9.52;79.50;102453.56;5036469;28;20076;-67
2021/12/15 07:30:35;;;;;;;17.60;9.23;;;;;;;9.70;79.17;102453.19;5028543;28;20100;-67
2021/12/15 07:33:03;;;;;;;15.90;8.88;;;;;;;9.68;79.01;102460.22;5047095;28;20118;-66
2021/12/15 07:35:29;;;;;;;19.00;9.55;;;;;;;9.74;78.86;102463.59;5049045;28;20045;-66
2021/12/15 07:37:56;;;;;;;19.25;8.15;;;;;;;9.82;78.57;102465.16;5048392;28;20103;-67
2021/12/15 07:40:25;;;;;;;18.40;9.50;;;;;;;9.69;79.05;102460.19;5048679;28;20069;-67
2021/12/15 07:43:05;;;;;;;15.45;8.82;;;;;;;10.12;77.23;102461.88;5048432;28;20052;-67
2021/12/15 07:45:34;;;;;;;14.52;8.63;;;;;;;9.63;79.14;102459.44;5048886;28;20045;-67
2021/12/15 07:48:03;;;;;;;15.65;9.00;;;;;;;9.63;79.72;102457.69;5048504;28;20497;-68
2021/12/15 07:50:32;;;;;;;16.10;8.50;;;;;;;9.38;80.38;102472.19;5047389;28;20126;-68
2021/12/15 07:52:58;;;;;;;16.13;8.88;;;;;;;9.36;80.49;102479.19;5048486;28;20045;-68
2021/12/15 07:55:26;;;;;;;16.00;8.85;;;;;;;9.40;80.95;102479.97;5046827;28;20752;-67
2021/12/15 07:57:53;;;;;;;14.85;8.07;;;;;;;9.67;79.44;102475.09;5045183;28;20493;-67
2021/12/15 08:00:21;;;;;;;11.60;7.38;;;;;;;9.63;78.96;102472.56;5045889;28;20072;-67
2021/12/15 08:02:48;;;;;;;11.73;7.18;;;;;;;9.62;79.49;102481.28;5047392;28;20049;-66
2021/12/15 08:05:15;;;;;;;11.40;7.18;;;;;;;9.72;78.95;102481.06;5039886;28;20555;-67
2021/12/15 08:07:42;;;;;;;13.73;7.57;;;;;;;9.98;78.10;102491.00;5036905;28;20044;-67
2021/12/15 08:10:10;;;;;;;16.15;8.07;;;;;;;10.01;78.13;102485.72;5048040;28;20462;-67
2021/12/15 08:12:38;;;;;;;11.55;7.18;;;;;;;9.93;78.29;102484.16;5048229;28;20051;-66
2021/12/15 08:15:07;;;;;;;13.38;8.00;;;;;;;9.82;78.77;102494.00;5048597;28;20041;-67
2021/12/15 08:17:33;;;;;;;12.95;7.40;;;;;;;9.69;79.41;102499.47;5041500;28;20682;-66
2021/12/15 08:20:00;;;;;;;13.77;6.97;;;;;;;9.67;79.54;102506.50;5047980;28;20044;-66
2021/12/15 08:22:26;;;;;;;12.77;7.40;;;;;;;9.90;78.96;102498.19;5042570;28;20069;-66
2021/12/15 08:24:53;;;;;;;11.95;7.20;;;;;;;9.73;79.76;102503.75;5028455;28;20143;-66
2021/12/15 08:27:19;;;;;;;11.60;7.18;;;;;;;9.85;79.12;102507.88;5037452;28;20069;-66
2021/12/15 08:29:47;;;;;;;11.82;7.13;;;;;;;9.74;79.19;102513.34;5046607;28;20046;-66
2021/12/15 08:32:13;;;;;;;9.18;6.30;;;;;;;9.75;79.11;102509.81;5045084;28;20069;-66
2021/12/15 08:34:39;;;;;;;12.25;6.72;;;;;;;9.81;79.28;102515.84;5048512;28;20561;-66
2021/12/15 08:37:13;;;;;;;9.95;6.57;;;;;;;9.99;78.79;102508.47;5046931;28;20111;-66
2021/12/15 08:39:39;;;;;;;8.77;5.65;;;;;;;10.08;79.20;102512.66;5043341;28;20128;-66
2021/12/15 08:42:06;;;;;;;10.60;6.55;;;;;;;9.99;79.14;102510.22;5045331;28;20134;-66
2021/12/15 08:44:33;;;;;;;10.65;6.32;;;;;;;10.11;79.15;102516.06;5038740;28;20102;-66
2021/12/15 08:47:00;;;;;;;9.30;5.63;;;;;;;10.13;78.62;102510.78;5046959;28;20670;-66
2021/12/15 08:49:27;;;;;;;9.73;6.35;;;;;;;10.22;78.67;102511.50;5047614;28;20493;-66
2021/12/15 08:51:53;;;;;;;8.43;5.93;;;;;;;10.37;77.77;102507.66;5046094;28;20118;-66
2021/12/15 08:54:22;;;;;;;8.68;5.60;;;;;;;10.57;76.55;102513.28;5050481;28;20064;-66
2021/12/15 08:56:50;;;;;;;12.23;6.05;;;;;;;10.70;76.86;102513.88;5051960;28;20045;-66
2021/12/15 08:59:16;;;;;;;9.18;6.35;;;;;;;10.67;76.57;102512.19;5051584;28;20072;-66
2021/12/15 09:01:44;;;;;;;12.55;7.55;;;;;;;10.42;77.65;102518.88;5049805;28;20501;-66
2021/12/15 09:04:14;;;;;;;12.38;7.53;;;;;;;10.63;76.95;102517.53;5049512;28;20546;-66
2021/12/15 09:06:40;;;;;;;12.05;6.45;;;;;;;10.58;76.87;102520.28;5040937;28;20041;-66
2021/12/15 09:09:10;;;;;;;14.02;8.00;;;;;;;10.64;76.96;102517.50;5051000;28;20044;-66
2021/12/15 09:11:37;;;;;;;23.90;8.85;;;;;;;10.61;76.59;102511.44;5050957;28;20057;-66
2021/12/15 09:14:06;;;;;;;14.23;6.90;;;;;;;10.38;77.33;102512.00;5049870;28;20489;-66
2021/12/15 09:16:33;;;;;;;10.57;6.65;;;;;;;10.25;78.12;102521.91;5051260;28;20523;-66
2021/12/15 09:19:00;;;;;;;11.27;6.57;;;;;;;10.34;78.14;102515.59;5051130;28;20095;-66
2021/12/15 09:21:32;;;;;;;12.90;6.75;;;;;;;10.30;78.17;102508.69;5051512;28;20053;-66
2021/12/15 09:23:59;;;;;;;13.55;7.50;;;;;;;10.38;77.89;102513.78;5051128;28;20065;-65
2021/12/15 09:26:26;;;;;;;11.00;6.82;;;;;;;10.25;78.50;102521.03;5051078;28;20072;-65
2021/12/15 09:28:53;;;;;;;11.88;6.97;;;;;;;10.29;78.34;102519.22;5051029;28;20590;-65
2021/12/15 09:31:20;;;;;;;13.75;7.78;;;;;;;10.21;78.62;102516.75;5049188;28;20440;-66
2021/12/15 09:33:49;;;;;;;16.20;8.30;;;;;;;10.25;79.16;102519.28;5050068;28;20075;-66
2021/12/15 09:36:17;;;;;;;15.88;7.88;;;;;;;10.35;79.11;102525.16;5051022;28;20094;-66
2021/12/15 09:38:50;;;;;;;15.82;7.97;;;;;;;10.42;78.79;102518.88;5050419;28;20057;-66
2021/12/15 09:41:19;;;;;;;16.02;8.75;;;;;;;10.58;78.30;102524.66;5051158;28;20049;-66
2021/12/15 09:43:48;;;;;;;15.68;8.13;;;;;;;10.55;78.36;102522.97;5050503;28;20087;-65
2021/12/15 09:46:25;;;;;;;16.73;8.63;;;;;;;10.72;77.86;102520.81;5050931;28;20071;-65
2021/12/15 09:57:21;;;;;;;17.55;8.93;;;;;;;11.35;76.40;102520.06;5050338;28;20163;-66
2021/12/15 10:02:45;;;;;;;18.70;10.48;;;;;;;11.44;75.49;102513.72;5047636;28;20066;-66
2021/12/15 10:05:26;;;;;;;16.05;9.38;;;;;;;11.75;74.48;102519.03;5039129;28;20482;-66
2021/12/15 10:11:00;;;;;;;22.17;10.23;;;;;;;11.66;74.91;102523.59;5050025;28;20048;-66
2021/12/15 10:19:20;;;;;;;15.05;8.05;;;;;;;11.09;76.51;102515.50;5049956;28;20076;-66
2021/12/15 10:22:12;;;;;;;18.15;8.10;;;;;;;11.28;75.83;102510.63;5050367;28;20037;-66
2021/12/15 10:24:47;;;;;;;16.80;7.95;;;;;;;11.40;75.73;102507.69;5050214;28;25428;-66
2021/12/15 10:27:18;;;;;;;17.13;9.07;;;;;;;11.23;75.88;102509.91;5050158;28;20048;-66
2021/12/15 10:29:58;;;;;;;15.40;7.55;;;;;;;11.42;75.21;102512.91;5050215;28;20045;-66
2021/12/15 10:32:29;;;;;;;14.98;8.43;;;;;;;11.51;74.81;102508.25;5049483;28;20102;-66
2021/12/15 10:35:01;;;;;;;13.48;7.13;;;;;;;11.20;75.91;102509.97;5041040;28;20102;-66
2021/12/15 10:37:28;;;;;;;11.18;7.30;;;;;;;11.35;75.47;102504.31;5048458;28;20676;-66
2021/12/15 10:40:13;;;;;;;15.57;8.32;;;;;;;11.47;74.74;102508.38;5042810;28;20050;-66
2021/12/15 10:42:41;;;;;;;12.38;7.25;;;;;;;11.19;75.43;102505.63;5044530;28;20052;-66
2021/12/15 10:45:14;;;;;;;11.27;6.90;;;;;;;11.21;75.72;102502.06;5049315;28;20574;-66
2021/12/15 10:47:43;;;;;;;14.65;8.02;;;;;;;11.39;75.52;102505.97;5048671;28;20487;-66
2021/12/15 10:50:19;;;;;;;10.73;7.20;;;;;;;11.53;74.45;102500.34;5049583;28;20102;-66
2021/12/15 10:52:55;;;;;;;10.02;6.78;;;;;;;11.48;75.39;102502.22;5049756;28;20086;-66
2021/12/15 10:55:29;;;;;;;11.32;6.78;;;;;;;11.47;75.06;102497.88;5049172;28;20049;-66
2021/12/15 10:57:56;;;;;;;11.40;5.47;;;;;;;11.34;75.83;102509.63;5048770;28;20559;-66
2021/12/15 11:00:24;;;;;;;8.95;5.68;;;;;;;11.44;75.36;102504.06;5048826;28;20496;-66
2021/12/15 11:02:51;;;;;;;6.75;4.65;;;;;;;11.58;74.89;102501.94;5047774;28;20064;-66
2021/12/15 11:05:20;;;;;;;9.02;4.82;;;;;;;11.75;73.96;102503.25;5049790;28;20106;-66
2021/12/15 11:07:52;;;;;;;6.93;5.03;;;;;;;11.84;73.43;102498.59;5049062;28;20098;-65
2021/12/15 11:10:22;;;;;;;7.95;5.45;;;;;;;11.63;74.03;102504.44;5048586;28;20481;-65
2021/12/15 11:12:52;;;;;;;9.75;5.65;;;;;;;11.56;74.26;102503.75;5049255;28;20091;-65
2021/12/15 11:15:22;;;;;;;10.27;5.68;;;;;;;11.69;73.64;102504.25;5048029;28;20037;-66
2021/12/15 11:17:51;;;;;;;9.45;5.40;;;;;;;11.57;73.75;102505.44;5049279;28;20040;-66
2021/12/15 11:20:24;;;;;;;8.52;5.18;;;;;;;11.79;73.63;102504.91;5045821;28;20492;-66
2021/12/15 11:22:54;;;;;;;9.23;5.63;;;;;;;11.62;74.00;102503.56;5031594;28;20045;-66
2021/12/15 11:25:27;;;;;;;12.82;6.22;;;;;;;11.53;74.48;102513.47;5048529;28;20053;-65
2021/12/15 11:27:58;;;;;;;8.85;6.18;;;;;;;11.51;74.11;102510.00;5047922;28;20509;-64
2021/12/15 11:30:30;;;;;;;10.00;6.85;;;;;;;11.52;74.18;102502.09;5047199;28;20122;-64
2021/12/15 11:33:03;;;;;;;10.10;6.43;;;;;;;11.31;74.56;102501.84;5048660;28;20103;-65
2021/12/15 11:35:32;;;;;;;10.48;6.80;;;;;;;11.46;74.01;102496.13;5029357;28;20482;-65
2021/12/15 11:38:03;;;;;;;11.45;6.60;;;;;;;11.23;75.24;102489.75;5042552;28;20048;-65
2021/12/15 11:40:40;;;;;;;10.15;6.40;;;;;;;11.26;74.96;102491.44;5044443;28;20149;-65
2021/12/15 11:43:08;;;;;;;12.07;6.75;;;;;;;11.45;74.43;102495.31;5048011;28;20085;-65
2021/12/15 11:45:40;;;;;;;8.30;5.70;;;;;;;11.50;74.10;102488.13;5045319;28;20072;-65
2021/12/15 11:48:15;;;;;;;11.43;5.70;;;;;;;11.48;74.13;102489.97;5043061;28;20055;-65
2021/12/15 11:50:43;;;;;;;11.27;5.82;;;;;;;11.33;74.91;102486.88;5039847;28;20435;-65
2021/12/15 11:53:14;;;;;;;10.27;6.13;;;;;;;11.14;75.13;102481.25;5040064;28;20586;-65
2021/12/15 11:55:41;;;;;;;10.57;6.03;;;;;;;11.17;75.49;102479.41;5049057;28;20072;-65
2021/12/15 11:58:07;;;;;;;12.35;6.28;;;;;;;11.22;74.96;102481.91;5048583;28;20045;-65
2021/12/15 12:00:35;;;;;;;9.85;5.15;;;;;;;11.29;74.48;102478.22;5040197;28;20044;-65
2021/12/15 12:03:02;;;;;;;9.85;5.40;;;;;;;11.34;74.32;102478.97;5047783;28;20123;-65
2021/12/15 12:05:32;;;;;;;11.27;6.47;;;;;;;11.25;74.62;102484.47;5038683;28;20065;-65
2021/12/15 12:08:00;;;;;;;7.70;5.53;;;;;;;11.27;74.57;102476.56;5038685;28;20045;-66
2021/12/15 12:10:31;;;;;;;9.18;5.20;;;;;;;11.44;74.11;102476.94;5048458;28;20446;-66
2021/12/15 12:13:05;;;;;;;6.53;4.30;;;;;;;11.40;74.00;102480.56;5047359;28;20045;-66
2021/12/15 12:15:34;;;;;;;12.23;8.15;;;;;;;11.36;74.75;102474.53;5047317;28;20540;-66
2021/12/15 12:18:05;;;;;;;7.93;7.10;;;;;;;11.52;73.91;102470.59;5047753;28;20045;-66
2021/12/15 12:20:34;;;;;;;9.50;5.22;;;;;;;11.38;73.87;102469.25;5047218;28;20103;-66
2021/12/15 12:23:06;;;;;;;7.22;4.53;;;;;;;11.42;74.51;102470.88;5047388;28;20127;-66